Nashport, Ohio
Current Conditions -  °F | °C
As of 5:54 PM on Tuesday 21 Oct 2014 (Local Time) from KVTA Reporting Station
Overcast Overcast  
Wind Chill: 45°   Ceiling: 3600
Heat Index: 49°   Visibility: 10mi
Dew Point: 38°   Wind: 10mph
Humidity: 66%   Direction: 340°NNW
Pressure: 30.05"   Gusts: NA
Location:  40.07°N, 82.18°W
Report Text: KVTA 212154Z AUTO 34009KT 10SM OVC036 09/03 A3005 RMK AO2 SLP178 T00940033
Loading
Personal Weather Stations






























Interactive Weather Map
Tropical Storm Tracking
New forecast layout! Learn more

10-Day Weather Forecast

Advertisements
Track Severe Weather on mobile